createdAt,value
2019-02-28T00:00:56.467Z,7.63
2019-02-28T00:03:27.005Z,5.47
2019-02-28T00:05:56.389Z,5.10
2019-02-28T00:08:25.543Z,6.53
2019-02-28T00:10:54.688Z,6.87
2019-02-28T00:13:23.778Z,6.83
2019-02-28T00:15:52.929Z,6.33
2019-02-28T00:18:21.945Z,8.53
2019-02-28T00:20:51.060Z,6.90
2019-02-28T00:23:22.049Z,6.87
2019-02-28T00:25:50.999Z,9.53
2019-02-28T00:28:20.104Z,8.13
2019-02-28T00:30:49.220Z,8.03
2019-02-28T00:33:18.339Z,7.73
2019-02-28T00:35:47.487Z,5.63
2019-02-28T00:38:16.631Z,5.53
2019-02-28T00:40:45.753Z,5.63
2019-02-28T00:43:14.894Z,7.27
2019-02-28T00:45:44.181Z,6.00
2019-02-28T00:48:13.306Z,6.37
2019-02-28T00:50:42.507Z,4.90
2019-02-28T00:53:11.674Z,5.53
2019-02-28T00:55:40.847Z,6.80
2019-02-28T00:58:09.963Z,4.83
2019-02-28T01:00:39.062Z,5.47
2019-02-28T01:03:08.180Z,5.93
2019-02-28T01:05:37.341Z,5.63
2019-02-28T01:08:06.493Z,5.57
2019-02-28T01:10:39.270Z,5.67
2019-02-28T01:13:06.554Z,5.73
2019-02-28T01:15:35.676Z,6.00
2019-02-28T01:18:04.775Z,5.57
2019-02-28T01:20:33.919Z,6.30
2019-02-28T01:23:03.014Z,8.20
2019-02-28T01:25:32.230Z,5.17
2019-02-28T01:28:01.324Z,5.80
2019-02-28T01:30:30.480Z,5.73
2019-02-28T01:32:59.561Z,7.90
2019-02-28T01:35:28.668Z,5.60
2019-02-28T01:37:57.780Z,7.07
2019-02-28T01:40:26.878Z,6.67
2019-02-28T01:42:56.015Z,5.63
2019-02-28T01:45:25.115Z,6.23
2019-02-28T01:47:54.240Z,7.50
2019-02-28T01:50:23.335Z,7.53
2019-02-28T01:52:52.435Z,6.17
2019-02-28T01:55:21.544Z,5.53
2019-02-28T01:57:50.612Z,6.13
2019-02-28T02:00:19.710Z,4.97
2019-02-28T02:02:48.813Z,5.10
2019-02-28T02:05:18.269Z,6.13
2019-02-28T02:07:47.363Z,5.37
2019-02-28T02:10:21.873Z,7.90
2019-02-28T02:12:51.142Z,6.60
2019-02-28T02:15:20.228Z,5.87
2019-02-28T02:17:49.326Z,5.67
2019-02-28T02:20:18.601Z,6.27
2019-02-28T02:22:47.737Z,5.87
2019-02-28T02:25:16.851Z,5.93
2019-02-28T02:27:45.985Z,7.63
2019-02-28T02:30:20.176Z,7.00
2019-02-28T02:32:49.281Z,6.40
2019-02-28T02:35:18.402Z,6.70
2019-02-28T02:37:47.529Z,6.53
2019-02-28T02:40:16.675Z,10.00
2019-02-28T02:42:48.914Z,8.03
2019-02-28T02:45:16.686Z,6.63
2019-02-28T02:47:45.895Z,7.70
2019-02-28T02:50:14.982Z,8.90
2019-02-28T02:52:44.092Z,7.37
2019-02-28T02:55:13.319Z,6.77
2019-02-28T02:57:42.584Z,6.57
2019-02-28T03:00:16.154Z,7.40
2019-02-28T03:02:45.354Z,8.03
2019-02-28T03:05:15.148Z,7.13
2019-02-28T03:07:44.282Z,9.03
2019-02-28T03:10:17.444Z,7.13
2019-02-28T03:12:44.966Z,10.43
2019-02-28T03:15:14.903Z,10.03
2019-02-28T03:17:47.215Z,6.10
2019-02-28T03:20:15.158Z,10.17
2019-02-28T03:22:44.317Z,20.03
2019-02-28T03:25:13.656Z,22.07
2019-02-28T03:27:42.754Z,19.53
2019-02-28T03:30:26.252Z,11.40
2019-02-28T03:32:45.047Z,9.50
2019-02-28T03:35:14.145Z,10.57
2019-02-28T03:37:43.253Z,9.00
2019-02-28T03:40:12.471Z,11.43
2019-02-28T03:42:41.613Z,12.40
2019-02-28T03:45:10.845Z,18.47
2019-02-28T03:47:39.933Z,18.60
2019-02-28T03:50:09.222Z,12.27
2019-02-28T03:52:42.760Z,11.33
2019-02-28T03:55:09.347Z,11.77
2019-02-28T03:57:38.444Z,10.37
2019-02-28T04:00:11.735Z,10.03
2019-02-28T04:02:40.833Z,8.23
2019-02-28T04:05:10.002Z,10.23
2019-02-28T04:07:39.108Z,11.40
2019-02-28T04:10:08.618Z,13.80
2019-02-28T04:12:44.933Z,11.27
2019-02-28T04:15:11.289Z,9.93
2019-02-28T04:17:40.490Z,11.57
2019-02-28T04:20:09.673Z,10.63
2019-02-28T04:22:38.842Z,9.63
2019-02-28T04:25:08.002Z,11.63
2019-02-28T04:27:40.358Z,10.80
2019-02-28T04:30:08.520Z,8.53
2019-02-28T04:32:37.798Z,10.03
2019-02-28T04:35:07.099Z,10.40
2019-02-28T04:37:36.236Z,8.13
2019-02-28T04:40:06.516Z,11.03
2019-02-28T04:42:36.696Z,9.93
2019-02-28T04:45:07.347Z,9.67
2019-02-28T04:47:37.312Z,11.23
2019-02-28T04:50:07.698Z,11.00
2019-02-28T04:52:36.796Z,8.73
2019-02-28T04:55:06.022Z,12.60
2019-02-28T04:57:35.113Z,9.97
2019-02-28T05:00:05.903Z,11.93
2019-02-28T05:02:35.224Z,13.43
2019-02-28T05:05:04.429Z,11.97
2019-02-28T05:07:33.551Z,14.97
2019-02-28T05:10:02.681Z,14.57
2019-02-28T05:12:31.789Z,14.83
2019-02-28T05:15:02.505Z,13.97
2019-02-28T05:17:31.885Z,12.07
2019-02-28T05:20:01.007Z,16.53
2019-02-28T05:22:30.131Z,13.60
2019-02-28T05:24:59.317Z,17.63
2019-02-28T05:27:35.107Z,14.20
2019-02-28T05:29:59.347Z,13.57
2019-02-28T05:32:28.542Z,14.63
2019-02-28T05:34:57.777Z,11.57
2019-02-28T05:37:26.835Z,14.87
2019-02-28T05:39:55.944Z,17.17
2019-02-28T05:42:25.157Z,14.30
2019-02-28T05:44:54.356Z,15.67
2019-02-28T05:47:23.548Z,12.43
2019-02-28T05:49:52.683Z,15.57
2019-02-28T05:52:21.876Z,15.53
2019-02-28T05:54:51.445Z,13.87
2019-02-28T05:57:20.666Z,15.93
2019-02-28T05:59:49.763Z,22.23
2019-02-28T06:02:22.099Z,20.57
2019-02-28T06:04:49.874Z,16.00
2019-02-28T06:07:19.454Z,18.30
2019-02-28T06:09:48.673Z,18.93
2019-02-28T06:12:18.509Z,21.23
2019-02-28T06:14:47.623Z,16.10
2019-02-28T06:17:17.392Z,20.80
2019-02-28T06:19:47.608Z,21.20
2019-02-28T06:22:16.732Z,20.57
2019-02-28T06:24:45.945Z,20.67
2019-02-28T06:27:15.208Z,22.17
2019-02-28T06:29:44.296Z,20.00
2019-02-28T06:32:14.080Z,23.90
2019-02-28T06:34:43.302Z,22.90
2019-02-28T06:37:12.492Z,23.27
2019-02-28T06:39:41.607Z,24.33
2019-02-28T06:42:11.788Z,24.00
2019-02-28T06:44:41.655Z,20.33
2019-02-28T06:47:11.273Z,26.43
2019-02-28T06:49:42.076Z,22.90
2019-02-28T06:52:11.324Z,22.10
2019-02-28T06:54:41.180Z,21.03
2019-02-28T06:57:10.363Z,26.10
2019-02-28T06:59:39.746Z,23.03
2019-02-28T07:02:09.059Z,23.20
2019-02-28T07:04:38.203Z,27.57
2019-02-28T07:07:10.152Z,24.23
2019-02-28T07:09:38.333Z,24.83
2019-02-28T07:12:07.631Z,31.70
2019-02-28T07:14:36.833Z,23.57
2019-02-28T07:17:07.783Z,27.87
2019-02-28T07:19:36.867Z,25.77
2019-02-28T07:22:06.081Z,25.07
2019-02-28T07:24:37.480Z,31.73
2019-02-28T07:27:06.220Z,29.10
2019-02-28T07:29:35.269Z,29.60
2019-02-28T07:32:04.563Z,31.90
2019-02-28T07:34:33.789Z,37.63
2019-02-28T07:37:02.941Z,31.63
2019-02-28T07:39:32.039Z,30.70
2019-02-28T07:42:02.256Z,31.20
2019-02-28T07:44:32.095Z,34.80
2019-02-28T07:47:01.223Z,36.23
2019-02-28T07:49:35.575Z,46.70
2019-02-28T07:52:01.235Z,40.20
2019-02-28T07:54:31.329Z,34.47
2019-02-28T07:57:00.611Z,35.40
2019-02-28T07:59:29.701Z,24.63
2019-02-28T08:01:59.983Z,22.53
2019-02-28T08:04:29.613Z,22.07
2019-02-28T08:06:58.821Z,25.07
2019-02-28T08:09:31.576Z,23.47
2019-02-28T08:12:00.805Z,19.87
2019-02-28T08:14:30.066Z,23.60
2019-02-28T08:16:59.168Z,22.47
2019-02-28T08:19:28.366Z,18.87
2019-02-28T08:21:57.499Z,21.10
2019-02-28T08:24:26.773Z,18.33
2019-02-28T08:27:17.914Z,20.47
2019-02-28T08:29:47.081Z,18.30
2019-02-28T08:32:16.239Z,18.40
2019-02-28T08:34:46.840Z,17.20
2019-02-28T08:37:18.940Z,18.03
2019-02-28T08:39:47.086Z,31.87
2019-02-28T08:42:16.248Z,19.17
2019-02-28T08:44:45.370Z,20.37
2019-02-28T08:47:14.472Z,18.37
2019-02-28T08:49:45.478Z,21.77
2019-02-28T08:52:14.424Z,19.97
2019-02-28T08:54:43.594Z,19.63
2019-02-28T08:57:13.020Z,22.03
2019-02-28T08:59:42.302Z,20.00
2019-02-28T09:02:14.510Z,20.83
2019-02-28T09:04:44.872Z,18.53
2019-02-28T09:07:15.159Z,38.70
2019-02-28T09:09:45.035Z,22.10
2019-02-28T09:12:14.319Z,49.60
2019-02-28T09:14:43.513Z,38.80
2019-02-28T09:17:15.571Z,32.77
2019-02-28T09:19:43.468Z,25.97
2019-02-28T09:22:12.585Z,41.10
2019-02-28T09:24:43.693Z,36.27
2019-02-28T09:27:12.542Z,37.03
2019-02-28T09:29:41.653Z,37.47
2019-02-28T09:32:13.614Z,43.47
2019-02-28T09:34:41.645Z,37.63
2019-02-28T09:37:10.771Z,31.93
2019-02-28T09:39:39.860Z,40.80
2019-02-28T09:42:08.945Z,34.47
2019-02-28T09:44:38.080Z,35.97
2019-02-28T09:47:07.205Z,31.90
2019-02-28T09:49:36.347Z,28.13
2019-02-28T09:52:06.342Z,31.07
2019-02-28T09:54:36.405Z,31.80
2019-02-28T09:57:05.536Z,28.50
2019-02-28T09:59:37.808Z,26.87
2019-02-28T10:02:08.364Z,32.80
2019-02-28T10:04:36.440Z,32.50
2019-02-28T10:07:05.561Z,34.43
2019-02-28T10:09:34.695Z,31.23
2019-02-28T10:12:04.605Z,27.23
2019-02-28T10:14:34.715Z,35.57
2019-02-28T10:17:03.885Z,28.50
2019-02-28T10:19:33.075Z,30.70
2019-02-28T10:22:02.205Z,25.10
2019-02-28T10:24:32.235Z,33.10
2019-02-28T10:27:03.452Z,33.47
2019-02-28T10:29:32.309Z,30.77
2019-02-28T10:32:01.445Z,29.43
2019-02-28T10:34:30.621Z,28.50
2019-02-28T10:36:59.733Z,31.13
2019-02-28T10:39:28.914Z,32.13
2019-02-28T10:41:58.043Z,31.77
2019-02-28T10:44:30.821Z,28.33
2019-02-28T10:46:58.020Z,28.63
2019-02-28T10:49:27.168Z,26.43
2019-02-28T10:51:56.298Z,27.93
2019-02-28T10:54:25.455Z,35.03
2019-02-28T10:56:54.556Z,25.17
2019-02-28T10:59:24.448Z,27.07
2019-02-28T11:01:54.291Z,26.93
2019-02-28T11:04:23.452Z,26.33
2019-02-28T11:06:52.639Z,28.67
2019-02-28T11:09:25.246Z,28.87
2019-02-28T11:11:52.913Z,25.93
2019-02-28T11:14:22.127Z,26.93
2019-02-28T11:16:51.276Z,26.27
2019-02-28T11:19:20.520Z,29.33
2019-02-28T11:21:49.664Z,25.30
2019-02-28T11:24:20.659Z,26.67
2019-02-28T11:26:49.640Z,27.57
2019-02-28T11:29:18.750Z,31.50
2019-02-28T11:31:50.564Z,27.13
2019-02-28T11:34:19.368Z,27.80
2019-02-28T11:36:48.518Z,25.70
2019-02-28T11:39:20.264Z,24.43
2019-02-28T11:41:52.709Z,27.60
2019-02-28T11:44:20.382Z,24.80
2019-02-28T11:46:49.527Z,26.70
2019-02-28T11:49:18.677Z,26.40
2019-02-28T11:51:49.454Z,25.00
2019-02-28T11:54:18.636Z,26.00
2019-02-28T11:56:47.735Z,26.95
2019-02-28T11:59:17.002Z,26.27
2019-02-28T12:01:48.347Z,26.33
2019-02-28T12:04:17.144Z,25.75
2019-02-28T12:06:46.276Z,25.27
2019-02-28T12:09:16.305Z,27.30
2019-02-28T12:11:46.771Z,23.57
2019-02-28T12:14:15.881Z,24.50
2019-02-28T12:16:45.068Z,28.43
2019-02-28T12:19:15.861Z,26.33
2019-02-28T12:21:44.983Z,32.27
2019-02-28T12:24:14.124Z,33.28
2019-02-28T12:26:43.407Z,26.80
2019-02-28T12:29:13.794Z,28.40
2019-02-28T12:31:43.168Z,26.40
2019-02-28T12:34:12.379Z,28.15
2019-02-28T12:36:41.504Z,24.95
2019-02-28T12:39:10.775Z,28.87
2019-02-28T12:41:40.213Z,26.47
2019-02-28T12:44:12.353Z,26.20
2019-02-28T12:46:40.332Z,24.77
2019-02-28T12:49:09.461Z,25.65
2019-02-28T12:51:39.645Z,27.05
2019-02-28T12:54:09.397Z,25.77
2019-02-28T12:56:38.539Z,23.80
2019-02-28T12:59:09.907Z,26.55
2019-02-28T13:01:38.633Z,22.02
2019-02-28T13:04:07.813Z,22.70
2019-02-28T13:06:36.939Z,23.17
2019-02-28T13:09:07.210Z,33.60
2019-02-28T13:11:36.564Z,27.70
2019-02-28T13:14:06.528Z,29.30
2019-02-28T13:16:35.965Z,24.15
2019-02-28T13:19:05.253Z,26.80
2019-02-28T13:21:34.435Z,30.10
2019-02-28T13:24:09.847Z,31.10
2019-02-28T13:26:37.434Z,37.07
2019-02-28T13:29:06.595Z,30.73
2019-02-28T13:31:35.860Z,45.07
2019-02-28T13:34:05.269Z,45.85
2019-02-28T13:36:34.391Z,39.40
2019-02-28T13:39:04.673Z,38.20
2019-02-28T13:41:33.851Z,29.57
2019-02-28T13:44:03.075Z,32.90
2019-02-28T13:46:33.905Z,32.67
2019-02-28T13:49:03.169Z,31.60
2019-02-28T13:51:36.651Z,32.88
2019-02-28T13:54:06.494Z,34.37
2019-02-28T13:56:34.351Z,31.20
2019-02-28T13:59:03.585Z,35.37
2019-02-28T14:01:32.812Z,33.50
2019-02-28T14:04:01.943Z,34.30
2019-02-28T14:06:31.130Z,37.27
2019-02-28T14:09:01.379Z,38.97
2019-02-28T14:11:30.904Z,34.63
2019-02-28T14:14:00.029Z,31.43
2019-02-28T14:16:29.329Z,36.43
2019-02-28T14:18:58.438Z,32.77
2019-02-28T14:21:27.569Z,32.47
2019-02-28T14:23:56.813Z,33.77
2019-02-28T14:26:26.042Z,36.27
2019-02-28T14:28:55.157Z,31.90
2019-02-28T14:31:24.296Z,32.63
2019-02-28T14:33:54.495Z,30.27
2019-02-28T14:36:24.327Z,24.37
2019-02-28T14:38:53.455Z,20.73
2019-02-28T14:41:24.696Z,18.70
2019-02-28T14:43:56.068Z,21.63
2019-02-28T14:46:24.404Z,16.33
2019-02-28T14:48:53.530Z,22.67
2019-02-28T14:51:25.523Z,12.23
2019-02-28T14:53:53.506Z,12.93
2019-02-28T14:56:22.711Z,12.57
2019-02-28T14:58:54.464Z,11.63
2019-02-28T15:01:22.732Z,20.43
2019-02-28T15:03:51.887Z,12.93
2019-02-28T15:06:20.993Z,14.73
2019-02-28T15:08:50.982Z,16.93
2019-02-28T15:11:21.125Z,12.27
2019-02-28T15:13:50.264Z,17.20
2019-02-28T15:16:19.424Z,13.50
2019-02-28T15:18:51.048Z,12.40
2019-02-28T15:21:19.435Z,12.03
2019-02-28T15:23:48.542Z,11.80
2019-02-28T15:26:17.777Z,14.87
2019-02-28T15:28:48.575Z,15.30
2019-02-28T15:31:17.776Z,14.30
2019-02-28T15:33:46.905Z,14.00
2019-02-28T15:36:16.037Z,17.50
2019-02-28T15:38:45.430Z,15.60
2019-02-28T15:41:14.577Z,16.67
2019-02-28T15:43:43.690Z,12.27
2019-02-28T15:46:12.884Z,17.93
2019-02-28T15:48:42.048Z,16.43
2019-02-28T15:51:11.320Z,18.27
2019-02-28T15:53:40.465Z,15.80
2019-02-28T15:56:13.327Z,21.40
2019-02-28T15:58:41.482Z,22.23
2019-02-28T16:01:11.421Z,19.43
2019-02-28T16:03:40.590Z,20.03
2019-02-28T16:06:09.740Z,22.93
2019-02-28T16:08:42.026Z,16.50
2019-02-28T16:11:09.860Z,17.73
2019-02-28T16:13:39.001Z,13.73
2019-02-28T16:16:08.203Z,14.53
2019-02-28T16:18:37.365Z,14.90
2019-02-28T16:21:07.301Z,14.27
2019-02-28T16:23:37.283Z,13.93
2019-02-28T16:26:06.520Z,15.00
2019-02-28T16:28:35.689Z,17.83
2019-02-28T16:31:06.325Z,19.97
2019-02-28T16:33:35.736Z,15.70
2019-02-28T16:36:07.963Z,22.57
2019-02-28T16:38:37.071Z,16.83
2019-02-28T16:41:06.243Z,17.97
2019-02-28T16:43:35.434Z,20.27
2019-02-28T16:46:04.663Z,19.47
2019-02-28T16:48:36.626Z,19.17
2019-02-28T16:51:04.751Z,18.20
2019-02-28T16:53:33.866Z,18.17
2019-02-28T16:56:05.701Z,17.43
2019-02-28T16:58:33.867Z,16.53
2019-02-28T17:01:03.087Z,18.37
2019-02-28T17:03:32.274Z,16.07
2019-02-28T17:06:02.261Z,21.57
2019-02-28T17:08:35.905Z,14.97
2019-02-28T17:11:05.186Z,16.50
2019-02-28T17:13:43.193Z,19.80
2019-02-28T17:16:19.702Z,17.13
2019-02-28T17:18:48.911Z,18.00
2019-02-28T17:21:18.201Z,16.53
2019-02-28T17:23:47.705Z,17.07
2019-02-28T17:26:17.621Z,13.87
2019-02-28T17:29:00.561Z,16.83
2019-02-28T17:31:48.087Z,15.47
2019-02-28T17:34:24.244Z,14.43
2019-02-28T17:36:52.416Z,15.17
2019-02-28T17:39:21.703Z,16.30
2019-02-28T17:41:50.945Z,11.90
2019-02-28T17:45:00.863Z,15.10
2019-02-28T17:48:14.093Z,16.27
2019-02-28T17:51:07.905Z,15.30
2019-02-28T17:54:08.713Z,13.97
2019-02-28T17:57:28.017Z,11.37
2019-02-28T18:00:33.971Z,14.53
2019-02-28T18:03:56.369Z,13.37
2019-02-28T18:07:03.162Z,11.93
2019-02-28T18:10:24.318Z,12.33
2019-02-28T18:13:21.429Z,14.63
2019-02-28T18:16:22.583Z,12.50
2019-02-28T18:19:21.638Z,12.93
2019-02-28T18:22:29.166Z,15.00
2019-02-28T18:25:42.199Z,14.73
2019-02-28T18:28:37.103Z,14.97
2019-02-28T18:31:13.702Z,13.50
2019-02-28T18:33:45.720Z,17.87
2019-02-28T18:36:17.160Z,16.67
2019-02-28T18:38:46.314Z,18.53
2019-02-28T18:41:16.213Z,16.57
2019-02-28T18:43:45.443Z,16.13
2019-02-28T18:46:14.588Z,18.73
2019-02-28T18:48:43.732Z,15.30
2019-02-28T18:51:12.844Z,20.00
2019-02-28T18:53:42.036Z,17.90
2019-02-28T18:56:11.163Z,17.17
2019-02-28T18:58:40.403Z,18.17
2019-02-28T19:01:09.559Z,15.53
2019-02-28T19:03:38.810Z,12.53
2019-02-28T19:06:07.911Z,12.33
2019-02-28T19:08:37.057Z,12.87
2019-02-28T19:11:06.271Z,10.00
2019-02-28T19:13:35.408Z,13.37
2019-02-28T19:16:04.566Z,11.77
2019-02-28T19:18:33.715Z,11.80
2019-02-28T19:21:02.822Z,10.27
2019-02-28T19:23:31.983Z,11.43
2019-02-28T19:26:01.291Z,14.03
2019-02-28T19:28:30.470Z,11.47
2019-02-28T19:31:02.135Z,15.60
2019-02-28T19:33:31.435Z,10.40
2019-02-28T19:36:01.017Z,13.60
2019-02-28T19:38:30.331Z,8.50
2019-02-28T19:40:59.522Z,12.37
2019-02-28T19:43:28.652Z,13.60
2019-02-28T19:45:57.945Z,14.83
2019-02-28T19:48:27.153Z,11.37
2019-02-28T19:50:56.373Z,12.53
2019-02-28T19:53:25.513Z,13.33
2019-02-28T19:55:56.640Z,14.07
2019-02-28T19:58:25.525Z,13.97
2019-02-28T20:00:54.795Z,8.63
2019-02-28T20:03:24.033Z,10.63
2019-02-28T20:05:53.230Z,10.97
2019-02-28T20:08:22.419Z,11.80
2019-02-28T20:10:51.638Z,13.80
2019-02-28T20:13:20.750Z,8.80
2019-02-28T20:15:50.133Z,11.10
2019-02-28T20:18:19.263Z,12.10
2019-02-28T20:20:48.405Z,12.47
2019-02-28T20:23:17.527Z,10.77
2019-02-28T20:25:46.783Z,9.50
2019-02-28T20:28:15.936Z,15.40
2019-02-28T20:30:45.247Z,13.77
2019-02-28T20:33:14.537Z,9.57
2019-02-28T20:35:43.759Z,11.07
2019-02-28T20:38:12.909Z,11.87
2019-02-28T20:40:42.049Z,8.67
2019-02-28T20:43:11.202Z,10.50
2019-02-28T20:45:40.502Z,10.17
2019-02-28T20:48:09.628Z,11.00
2019-02-28T20:50:40.491Z,10.87
2019-02-28T20:53:09.692Z,14.93
2019-02-28T20:55:39.014Z,12.40
2019-02-28T20:58:08.295Z,12.67
2019-02-28T21:00:37.562Z,11.50
2019-02-28T21:03:06.662Z,11.53
2019-02-28T21:05:35.893Z,10.27
2019-02-28T21:08:05.271Z,11.93
2019-02-28T21:10:34.536Z,12.13
2019-02-28T21:13:03.715Z,10.33
2019-02-28T21:15:32.944Z,11.27
2019-02-28T21:18:02.070Z,12.93
2019-02-28T21:26:44.409Z,11.93
2019-02-28T21:29:13.549Z,12.67
2019-02-28T21:31:42.649Z,11.57
2019-02-28T21:34:11.965Z,9.73
2019-02-28T21:36:41.237Z,10.60
2019-02-28T21:39:10.787Z,11.73
2019-02-28T21:41:39.882Z,7.37
2019-02-28T21:44:08.931Z,10.83
2019-02-28T21:46:38.023Z,11.17
2019-02-28T21:49:07.124Z,11.40
2019-02-28T21:51:36.231Z,7.90
2019-02-28T21:54:05.346Z,10.03
2019-02-28T21:56:34.495Z,10.60
2019-02-28T21:59:03.643Z,9.47
2019-02-28T22:01:32.763Z,8.83
2019-02-28T22:04:01.947Z,11.80
2019-02-28T22:06:31.039Z,7.80
2019-02-28T22:09:00.057Z,11.80
2019-02-28T22:11:29.085Z,8.17
2019-02-28T22:13:58.151Z,8.93
2019-02-28T22:16:27.255Z,9.93
2019-02-28T22:18:56.343Z,9.27
2019-02-28T22:21:25.457Z,8.20
2019-02-28T22:23:54.509Z,8.97
2019-02-28T22:26:23.625Z,7.30
2019-02-28T22:28:52.711Z,10.07
2019-02-28T22:31:47.274Z,10.90
2019-02-28T22:34:33.319Z,11.00
2019-02-28T22:37:02.344Z,8.70
2019-02-28T22:39:31.458Z,5.13
2019-02-28T22:42:00.551Z,7.70
2019-02-28T22:44:29.616Z,10.13
2019-02-28T22:46:58.709Z,7.77
2019-02-28T22:49:27.755Z,7.60
2019-02-28T22:51:56.846Z,7.17
2019-02-28T22:54:25.945Z,8.03
2019-02-28T22:56:55.050Z,11.23
2019-02-28T22:59:24.141Z,9.17
2019-02-28T23:01:53.906Z,9.60
2019-02-28T23:04:22.982Z,7.03
2019-02-28T23:06:52.107Z,11.17
2019-02-28T23:09:21.189Z,10.20
2019-02-28T23:11:50.305Z,8.03
2019-02-28T23:14:19.571Z,6.77
2019-02-28T23:16:48.707Z,5.70
2019-02-28T23:19:20.560Z,5.80
2019-02-28T23:21:49.690Z,7.47
2019-02-28T23:24:18.768Z,9.67
2019-02-28T23:27:24.845Z,7.43
2019-02-28T23:30:28.270Z,7.13
2019-02-28T23:33:06.372Z,6.03
2019-02-28T23:35:40.892Z,7.30
2019-02-28T23:38:10.115Z,6.53
2019-02-28T23:40:39.188Z,5.57
2019-02-28T23:43:08.280Z,7.87
2019-02-28T23:45:37.370Z,5.50
2019-02-28T23:48:06.479Z,5.47
2019-02-28T23:50:35.617Z,5.93
2019-02-28T23:53:04.795Z,7.73
2019-02-28T23:55:33.864Z,4.00
2019-02-28T23:58:02.973Z,5.27
